sensor_id;sensor_type;location;lat;lon;timestamp;temperature;humidity
65472;DHT22;52068;50.710;14.492;2022-12-29T00:01:34;27.70;32.45
65472;DHT22;52068;50.710;14.492;2022-12-29T00:03:59;27.54;32.61
65472;DHT22;52068;50.710;14.492;2022-12-29T00:06:25;27.27;33.00
65472;DHT22;52068;50.710;14.492;2022-12-29T00:08:51;26.99;33.42
65472;DHT22;52068;50.710;14.492;2022-12-29T00:11:21;26.72;33.93
65472;DHT22;52068;50.710;14.492;2022-12-29T00:13:47;26.43;34.42
65472;DHT22;52068;50.710;14.492;2022-12-29T00:16:33;26.10;34.98
65472;DHT22;52068;50.710;14.492;2022-12-29T00:18:59;25.82;35.48
65472;DHT22;52068;50.710;14.492;2022-12-29T00:21:25;25.50;35.93
65472;DHT22;52068;50.710;14.492;2022-12-29T00:24:12;25.22;36.36
65472;DHT22;52068;50.710;14.492;2022-12-29T00:26:50;24.98;36.90
65472;DHT22;52068;50.710;14.492;2022-12-29T00:29:36;24.83;37.17
65472;DHT22;52068;50.710;14.492;2022-12-29T00:32:20;25.05;36.79
65472;DHT22;52068;50.710;14.492;2022-12-29T00:35:04;25.65;35.81
65472;DHT22;52068;50.710;14.492;2022-12-29T00:37:43;26.40;34.56
65472;DHT22;52068;50.710;14.492;2022-12-29T00:40:29;27.20;33.25
65472;DHT22;52068;50.710;14.492;2022-12-29T00:43:13;27.93;32.02
65472;DHT22;52068;50.710;14.492;2022-12-29T00:45:57;28.57;31.04
65472;DHT22;52068;50.710;14.492;2022-12-29T00:48:22;29.08;30.25
65472;DHT22;52068;50.710;14.492;2022-12-29T00:51:07;29.48;29.65
65472;DHT22;52068;50.710;14.492;2022-12-29T00:53:33;29.65;29.34
65472;DHT22;52068;50.710;14.492;2022-12-29T00:55:58;29.68;29.31
65472;DHT22;52068;50.710;14.492;2022-12-29T00:58:27;29.54;29.51
65472;DHT22;52068;50.710;14.492;2022-12-29T01:01:01;29.27;29.89
65472;DHT22;52068;50.710;14.492;2022-12-29T01:03:27;28.89;30.56
65472;DHT22;52068;50.710;14.492;2022-12-29T01:05:52;28.39;31.27
65472;DHT22;52068;50.710;14.492;2022-12-29T01:08:17;27.94;32.10
65472;DHT22;52068;50.710;14.492;2022-12-29T01:10:43;27.43;33.07
65472;DHT22;52068;50.710;14.492;2022-12-29T01:13:08;27.03;33.85
65472;DHT22;52068;50.710;14.492;2022-12-29T01:15:33;26.62;34.41
65472;DHT22;52068;50.710;14.492;2022-12-29T01:17:59;26.30;35.03
65472;DHT22;52068;50.710;14.492;2022-12-29T01:20:24;25.97;35.72
65472;DHT22;52068;50.710;14.492;2022-12-29T01:22:50;25.67;36.37
65472;DHT22;52068;50.710;14.492;2022-12-29T01:25:15;25.46;36.78
65472;DHT22;52068;50.710;14.492;2022-12-29T01:27:41;25.38;36.95
65472;DHT22;52068;50.710;14.492;2022-12-29T01:30:06;25.50;36.69
65472;DHT22;52068;50.710;14.492;2022-12-29T01:32:32;25.75;36.34
65472;DHT22;52068;50.710;14.492;2022-12-29T01:34:57;26.00;35.82
65472;DHT22;52068;50.710;14.492;2022-12-29T01:37:23;26.33;35.31
65472;DHT22;52068;50.710;14.492;2022-12-29T01:39:48;26.65;34.65
65472;DHT22;52068;50.710;14.492;2022-12-29T01:42:18;26.96;34.10
65472;DHT22;52068;50.710;14.492;2022-12-29T01:47:09;27.36;33.29
65472;DHT22;52068;50.710;14.492;2022-12-29T01:49:35;27.42;33.08
65472;DHT22;52068;50.710;14.492;2022-12-29T01:52:04;27.42;33.10
65472;DHT22;52068;50.710;14.492;2022-12-29T01:54:35;27.32;33.21
65472;DHT22;52068;50.710;14.492;2022-12-29T01:57:08;27.16;33.47
65472;DHT22;52068;50.710;14.492;2022-12-29T01:59:38;26.98;33.70
65472;DHT22;52068;50.710;14.492;2022-12-29T02:02:05;26.84;33.99
65472;DHT22;52068;50.710;14.492;2022-12-29T02:04:32;26.65;34.24
65472;DHT22;52068;50.710;14.492;2022-12-29T02:07:08;26.44;34.55
65472;DHT22;52068;50.710;14.492;2022-12-29T02:09:35;26.30;34.82
65472;DHT22;52068;50.710;14.492;2022-12-29T02:12:02;26.16;35.02
65472;DHT22;52068;50.710;14.492;2022-12-29T02:14:28;26.12;35.08
65472;DHT22;52068;50.710;14.492;2022-12-29T02:33:21;28.00;31.92
65472;DHT22;52068;50.710;14.492;2022-12-29T02:38:28;28.44;31.26
65472;DHT22;52068;50.710;14.492;2022-12-29T02:41:04;28.49;31.20
65472;DHT22;52068;50.710;14.492;2022-12-29T02:43:59;28.35;31.48
65472;DHT22;52068;50.710;14.492;2022-12-29T02:46:36;28.08;31.85
65472;DHT22;52068;50.710;14.492;2022-12-29T02:49:33;27.74;32.37
65472;DHT22;52068;50.710;14.492;2022-12-29T02:52:06;27.40;32.96
65472;DHT22;52068;50.710;14.492;2022-12-29T02:54:33;27.09;33.53
65472;DHT22;52068;50.710;14.492;2022-12-29T03:00:00;26.37;34.74
65472;DHT22;52068;50.710;14.492;2022-12-29T03:08:17;25.46;36.27
65472;DHT22;52068;50.710;14.492;2022-12-29T03:13:56;25.96;35.48
65472;DHT22;52068;50.710;14.492;2022-12-29T03:16:47;26.76;34.37
65472;DHT22;52068;50.710;14.492;2022-12-29T03:19:23;27.58;32.79
65472;DHT22;52068;50.710;14.492;2022-12-29T03:21:55;27.90;28.23
65472;DHT22;52068;50.710;14.492;2022-12-29T03:24:45;28.65;29.74
65472;DHT22;52068;50.710;14.492;2022-12-29T03:27:15;29.59;28.77
65472;DHT22;52068;50.710;14.492;2022-12-29T03:29:46;30.59;27.70
65472;DHT22;52068;50.710;14.492;2022-12-29T03:32:19;31.55;26.50
65472;DHT22;52068;50.710;14.492;2022-12-29T03:34:46;32.34;25.57
65472;DHT22;52068;50.710;14.492;2022-12-29T03:37:17;33.04;24.76
65472;DHT22;52068;50.710;14.492;2022-12-29T03:39:43;33.50;24.20
65472;DHT22;52068;50.710;14.492;2022-12-29T03:42:13;33.65;24.12
65472;DHT22;52068;50.710;14.492;2022-12-29T03:44:40;33.60;24.22
65472;DHT22;52068;50.710;14.492;2022-12-29T03:47:07;33.29;24.50
65472;DHT22;52068;50.710;14.492;2022-12-29T03:49:33;32.88;24.92
65472;DHT22;52068;50.710;14.492;2022-12-29T03:51:59;32.40;25.54
65472;DHT22;52068;50.710;14.492;2022-12-29T03:54:24;31.86;26.23
65472;DHT22;52068;50.710;14.492;2022-12-29T03:56:50;31.29;26.89
65472;DHT22;52068;50.710;14.492;2022-12-29T03:59:15;30.76;27.65
65472;DHT22;52068;50.710;14.492;2022-12-29T04:01:41;30.20;28.38
65472;DHT22;52068;50.710;14.492;2022-12-29T04:04:06;29.68;29.05
65472;DHT22;52068;50.710;14.492;2022-12-29T04:06:32;29.17;29.75
65472;DHT22;52068;50.710;14.492;2022-12-29T04:08:57;28.69;30.48
65472;DHT22;52068;50.710;14.492;2022-12-29T04:11:23;28.25;31.24
65472;DHT22;52068;50.710;14.492;2022-12-29T04:13:48;27.85;31.88
65472;DHT22;52068;50.710;14.492;2022-12-29T04:16:14;27.43;32.47
65472;DHT22;52068;50.710;14.492;2022-12-29T04:18:39;27.05;33.08
65472;DHT22;52068;50.710;14.492;2022-12-29T04:21:05;26.74;31.80
65472;DHT22;52068;50.710;14.492;2022-12-29T04:23:33;26.41;29.26
65472;DHT22;52068;50.710;14.492;2022-12-29T04:25:59;26.13;32.56
65472;DHT22;52068;50.710;14.492;2022-12-29T04:28:24;26.76;32.25
65472;DHT22;52068;50.710;14.492;2022-12-29T04:30:50;28.08;30.63
65472;DHT22;52068;50.710;14.492;2022-12-29T04:33:16;29.54;28.67
65472;DHT22;52068;50.710;14.492;2022-12-29T04:35:42;30.88;26.91
65472;DHT22;52068;50.710;14.492;2022-12-29T04:38:08;32.00;25.56
65472;DHT22;52068;50.710;14.492;2022-12-29T04:40:33;32.81;24.61
65472;DHT22;52068;50.710;14.492;2022-12-29T04:42:59;33.36;24.02
65472;DHT22;52068;50.710;14.492;2022-12-29T04:45:24;33.72;23.56
65472;DHT22;52068;50.710;14.492;2022-12-29T04:47:50;33.76;23.51
65472;DHT22;52068;50.710;14.492;2022-12-29T04:50:18;33.50;23.84
65472;DHT22;52068;50.710;14.492;2022-12-29T04:52:43;33.12;24.26
65472;DHT22;52068;50.710;14.492;2022-12-29T04:55:09;32.61;24.83
65472;DHT22;52068;50.710;14.492;2022-12-29T04:57:34;32.09;25.38
65472;DHT22;52068;50.710;14.492;2022-12-29T05:00:00;31.52;26.04
65472;DHT22;52068;50.710;14.492;2022-12-29T05:02:25;30.98;26.85
65472;DHT22;52068;50.710;14.492;2022-12-29T05:04:50;30.41;27.63
65472;DHT22;52068;50.710;14.492;2022-12-29T05:07:16;29.86;28.45
65472;DHT22;52068;50.710;14.492;2022-12-29T05:09:41;29.35;29.18
65472;DHT22;52068;50.710;14.492;2022-12-29T05:12:07;28.86;29.89
65472;DHT22;52068;50.710;14.492;2022-12-29T05:14:32;28.38;30.58
65472;DHT22;52068;50.710;14.492;2022-12-29T05:16:58;27.95;31.22
65472;DHT22;52068;50.710;14.492;2022-12-29T05:19:23;27.50;31.87
65472;DHT22;52068;50.710;14.492;2022-12-29T05:21:48;27.13;32.51
65472;DHT22;52068;50.710;14.492;2022-12-29T05:24:14;26.81;33.09
65472;DHT22;52068;50.710;14.492;2022-12-29T05:26:40;26.47;33.69
65472;DHT22;52068;50.710;14.492;2022-12-29T05:29:06;26.28;34.06
65472;DHT22;52068;50.710;14.492;2022-12-29T05:31:31;26.47;33.78
65472;DHT22;52068;50.710;14.492;2022-12-29T05:33:56;27.00;32.85
65472;DHT22;52068;50.710;14.492;2022-12-29T05:36:22;27.80;31.57
65472;DHT22;52068;50.710;14.492;2022-12-29T05:38:47;28.67;30.19
65472;DHT22;52068;50.710;14.492;2022-12-29T05:41:12;29.53;29.06
65472;DHT22;52068;50.710;14.492;2022-12-29T05:43:38;30.26;28.00
65472;DHT22;52068;50.710;14.492;2022-12-29T05:46:03;30.86;27.13
65472;DHT22;52068;50.710;14.492;2022-12-29T05:48:29;31.28;26.70
65472;DHT22;52068;50.710;14.492;2022-12-29T05:50:54;31.52;26.41
65472;DHT22;52068;50.710;14.492;2022-12-29T05:53:19;31.58;26.35
65472;DHT22;52068;50.710;14.492;2022-12-29T05:55:48;31.35;26.52
65472;DHT22;52068;50.710;14.492;2022-12-29T05:58:15;30.94;27.00
65472;DHT22;52068;50.710;14.492;2022-12-29T06:00:40;30.52;27.57
65472;DHT22;52068;50.710;14.492;2022-12-29T06:03:05;30.01;28.26
65472;DHT22;52068;50.710;14.492;2022-12-29T06:05:31;29.50;28.93
65472;DHT22;52068;50.710;14.492;2022-12-29T06:07:56;28.99;29.67
65472;DHT22;52068;50.710;14.492;2022-12-29T06:10:22;28.48;30.37
65472;DHT22;52068;50.710;14.492;2022-12-29T06:12:47;28.02;31.08
65472;DHT22;52068;50.710;14.492;2022-12-29T06:15:13;27.60;31.83
65472;DHT22;52068;50.710;14.492;2022-12-29T06:17:39;27.17;32.54
65472;DHT22;52068;50.710;14.492;2022-12-29T06:20:05;26.84;33.16
65472;DHT22;52068;50.710;14.492;2022-12-29T06:22:30;26.49;33.75
65472;DHT22;52068;50.710;14.492;2022-12-29T06:24:55;26.33;34.03
65472;DHT22;52068;50.710;14.492;2022-12-29T06:27:21;26.47;33.85
65472;DHT22;52068;50.710;14.492;2022-12-29T06:29:46;26.86;33.12
65472;DHT22;52068;50.710;14.492;2022-12-29T06:32:12;27.36;32.20
65472;DHT22;52068;50.710;14.492;2022-12-29T06:34:37;27.98;31.26
65472;DHT22;52068;50.710;14.492;2022-12-29T06:37:03;28.56;30.32
65472;DHT22;52068;50.710;14.492;2022-12-29T06:39:28;29.11;29.53
65472;DHT22;52068;50.710;14.492;2022-12-29T06:41:54;29.57;28.90
65472;DHT22;52068;50.710;14.492;2022-12-29T06:44:21;29.82;28.48
65472;DHT22;52068;50.710;14.492;2022-12-29T06:46:47;29.96;28.26
65472;DHT22;52068;50.710;14.492;2022-12-29T06:49:12;29.90;28.28
65472;DHT22;52068;50.710;14.492;2022-12-29T06:51:38;29.74;28.49
65472;DHT22;52068;50.710;14.492;2022-12-29T06:54:03;29.44;28.84
65472;DHT22;52068;50.710;14.492;2022-12-29T06:56:28;29.10;29.34
65472;DHT22;52068;50.710;14.492;2022-12-29T06:58:54;28.70;29.91
65472;DHT22;52068;50.710;14.492;2022-12-29T07:01:19;28.34;30.44
65472;DHT22;52068;50.710;14.492;2022-12-29T07:03:45;27.95;30.96
65472;DHT22;52068;50.710;14.492;2022-12-29T07:06:10;27.56;31.59
65472;DHT22;52068;50.710;14.492;2022-12-29T07:08:36;27.17;32.25
65472;DHT22;52068;50.710;14.492;2022-12-29T07:11:01;26.85;32.76
65472;DHT22;52068;50.710;14.492;2022-12-29T07:13:26;26.64;33.20
65472;DHT22;52068;50.710;14.492;2022-12-29T07:15:52;26.61;33.33
65472;DHT22;52068;50.710;14.492;2022-12-29T07:18:17;26.76;33.01
65472;DHT22;52068;50.710;14.492;2022-12-29T07:20:42;27.07;32.55
65472;DHT22;52068;50.710;14.492;2022-12-29T07:23:08;27.53;31.84
65472;DHT22;52068;50.710;14.492;2022-12-29T07:25:33;28.02;31.08
65472;DHT22;52068;50.710;14.492;2022-12-29T07:28:01;28.48;30.37
65472;DHT22;52068;50.710;14.492;2022-12-29T07:30:26;28.80;29.25
65472;DHT22;52068;50.710;14.492;2022-12-29T07:32:56;28.76;27.45
65472;DHT22;52068;50.710;14.492;2022-12-29T07:35:21;28.44;28.14
65472;DHT22;52068;50.710;14.492;2022-12-29T07:37:47;28.45;27.41
65472;DHT22;52068;50.710;14.492;2022-12-29T07:40:12;28.82;26.87
65472;DHT22;52068;50.710;14.492;2022-12-29T07:42:38;29.76;27.43
65472;DHT22;52068;50.710;14.492;2022-12-29T07:45:04;30.71;26.49
65472;DHT22;52068;50.710;14.492;2022-12-29T07:47:29;31.52;25.61
65472;DHT22;52068;50.710;14.492;2022-12-29T07:49:55;32.02;25.15
65472;DHT22;52068;50.710;14.492;2022-12-29T07:52:20;32.43;24.66
65472;DHT22;52068;50.710;14.492;2022-12-29T07:54:45;32.63;24.51
65472;DHT22;52068;50.710;14.492;2022-12-29T07:57:11;32.53;24.64
65472;DHT22;52068;50.710;14.492;2022-12-29T07:59:36;32.26;24.95
65472;DHT22;52068;50.710;14.492;2022-12-29T08:02:02;31.82;25.41
65472;DHT22;52068;50.710;14.492;2022-12-29T08:04:27;31.34;25.95
65472;DHT22;52068;50.710;14.492;2022-12-29T08:06:52;30.78;26.65
65472;DHT22;52068;50.710;14.492;2022-12-29T08:09:18;30.22;27.26
65472;DHT22;52068;50.710;14.492;2022-12-29T08:11:44;29.64;27.97
65472;DHT22;52068;50.710;14.492;2022-12-29T08:14:09;29.16;28.81
65472;DHT22;52068;50.710;14.492;2022-12-29T08:16:35;28.62;29.60
65472;DHT22;52068;50.710;14.492;2022-12-29T08:19:01;28.16;30.27
65472;DHT22;52068;50.710;14.492;2022-12-29T08:21:27;27.74;30.91
65472;DHT22;52068;50.710;14.492;2022-12-29T08:23:53;27.37;31.49
65472;DHT22;52068;50.710;14.492;2022-12-29T08:26:18;27.09;31.97
65472;DHT22;52068;50.710;14.492;2022-12-29T08:28:44;26.79;32.53
65472;DHT22;52068;50.710;14.492;2022-12-29T08:31:09;26.56;32.92
65472;DHT22;52068;50.710;14.492;2022-12-29T08:33:35;26.30;33.46
65472;DHT22;52068;50.710;14.492;2022-12-29T08:36:05;26.04;33.87
65472;DHT22;52068;50.710;14.492;2022-12-29T08:38:31;25.79;34.34
65472;DHT22;52068;50.710;14.492;2022-12-29T08:40:57;25.53;34.75
65472;DHT22;52068;50.710;14.492;2022-12-29T08:43:23;25.28;35.30
65472;DHT22;52068;50.710;14.492;2022-12-29T08:45:49;25.07;35.59
65472;DHT22;52068;50.710;14.492;2022-12-29T08:48:15;24.87;35.98
65472;DHT22;52068;50.710;14.492;2022-12-29T08:50:44;24.71;36.25
65472;DHT22;52068;50.710;14.492;2022-12-29T08:53:09;24.73;36.30
65472;DHT22;52068;50.710;14.492;2022-12-29T08:55:35;24.88;36.19
65472;DHT22;52068;50.710;14.492;2022-12-29T08:58:00;25.16;35.78
65472;DHT22;52068;50.710;14.492;2022-12-29T09:00:26;25.41;35.29
65472;DHT22;52068;50.710;14.492;2022-12-29T09:02:51;25.63;34.98
65472;DHT22;52068;50.710;14.492;2022-12-29T09:05:17;25.69;34.79
65472;DHT22;52068;50.710;14.492;2022-12-29T09:07:42;25.72;34.79
65472;DHT22;52068;50.710;14.492;2022-12-29T09:10:08;25.63;34.93
65472;DHT22;52068;50.710;14.492;2022-12-29T09:12:33;25.50;35.13
65472;DHT22;52068;50.710;14.492;2022-12-29T09:14:59;25.39;35.37
65472;DHT22;52068;50.710;14.492;2022-12-29T09:17:24;25.16;35.74
65472;DHT22;52068;50.710;14.492;2022-12-29T09:20:09;25.03;36.09
65472;DHT22;52068;50.710;14.492;2022-12-29T09:22:35;24.91;36.28
65472;DHT22;52068;50.710;14.492;2022-12-29T09:25:01;24.73;36.69
65472;DHT22;52068;50.710;14.492;2022-12-29T09:27:26;24.57;36.93
65472;DHT22;52068;50.710;14.492;2022-12-29T09:29:52;24.39;37.25
65472;DHT22;52068;50.710;14.492;2022-12-29T09:32:17;24.24;37.53
65472;DHT22;52068;50.710;14.492;2022-12-29T09:34:42;24.10;37.84
65472;DHT22;52068;50.710;14.492;2022-12-29T09:37:08;23.98;38.04
65472;DHT22;52068;50.710;14.492;2022-12-29T09:39:33;23.86;38.38
65472;DHT22;52068;50.710;14.492;2022-12-29T09:42:22;23.78;38.54
65472;DHT22;52068;50.710;14.492;2022-12-29T09:47:36;24.06;38.07
65472;DHT22;52068;50.710;14.492;2022-12-29T09:50:08;24.26;37.67
65472;DHT22;52068;50.710;14.492;2022-12-29T09:52:42;24.43;37.42
65472;DHT22;52068;50.710;14.492;2022-12-29T09:55:14;24.53;37.18
65472;DHT22;52068;50.710;14.492;2022-12-29T09:57:56;24.50;37.18
65472;DHT22;52068;50.710;14.492;2022-12-29T10:00:37;24.47;37.30
65472;DHT22;52068;50.710;14.492;2022-12-29T10:03:15;24.34;37.46
65472;DHT22;52068;50.710;14.492;2022-12-29T10:05:53;24.23;37.62
65472;DHT22;52068;50.710;14.492;2022-12-29T10:11:41;24.10;37.89
65472;DHT22;52068;50.710;14.492;2022-12-29T10:14:32;24.01;38.10
65472;DHT22;52068;50.710;14.492;2022-12-29T10:17:33;23.82;38.45
65472;DHT22;52068;50.710;14.492;2022-12-29T10:25:26;23.47;39.32
65472;DHT22;52068;50.710;14.492;2022-12-29T10:27:56;23.37;39.49
65472;DHT22;52068;50.710;14.492;2022-12-29T10:30:23;23.37;39.47
65472;DHT22;52068;50.710;14.492;2022-12-29T10:32:58;23.57;38.93
65472;DHT22;52068;50.710;14.492;2022-12-29T10:35:28;23.85;38.59
65472;DHT22;52068;50.710;14.492;2022-12-29T10:38:20;24.24;37.92
65472;DHT22;52068;50.710;14.492;2022-12-29T10:40:53;24.53;37.48
65472;DHT22;52068;50.710;14.492;2022-12-29T10:43:31;24.71;36.84
65472;DHT22;52068;50.710;14.492;2022-12-29T10:46:04;24.88;36.53
65472;DHT22;52068;50.710;14.492;2022-12-29T10:48:34;24.90;36.54
65472;DHT22;52068;50.710;14.492;2022-12-29T10:51:02;24.85;36.58
65472;DHT22;52068;50.710;14.492;2022-12-29T10:53:45;24.74;36.33
65472;DHT22;52068;50.710;14.492;2022-12-29T10:58:54;24.47;36.99
65472;DHT22;52068;50.710;14.492;2022-12-29T11:01:22;24.33;37.24
65472;DHT22;52068;50.710;14.492;2022-12-29T11:04:02;24.15;37.66
65472;DHT22;52068;50.710;14.492;2022-12-29T11:06:28;24.01;37.76
65472;DHT22;52068;50.710;14.492;2022-12-29T11:09:24;23.86;38.05
65472;DHT22;52068;50.710;14.492;2022-12-29T11:11:50;23.75;37.94
65472;DHT22;52068;50.710;14.492;2022-12-29T11:14:30;23.64;38.27
65472;DHT22;52068;50.710;14.492;2022-12-29T11:16:57;23.51;38.57
65472;DHT22;52068;50.710;14.492;2022-12-29T11:19:26;23.47;38.65
65472;DHT22;52068;50.710;14.492;2022-12-29T11:21:52;23.47;38.51
65472;DHT22;52068;50.710;14.492;2022-12-29T11:24:26;23.64;38.46
65472;DHT22;52068;50.710;14.492;2022-12-29T11:27:16;23.95;37.96
65472;DHT22;52068;50.710;14.492;2022-12-29T11:29:42;24.22;37.29
65472;DHT22;52068;50.710;14.492;2022-12-29T11:32:20;24.46;37.03
65472;DHT22;52068;50.710;14.492;2022-12-29T11:34:46;24.61;36.70
65472;DHT22;52068;50.710;14.492;2022-12-29T11:37:27;24.70;36.55
65472;DHT22;52068;50.710;14.492;2022-12-29T11:42:52;24.67;36.62
65472;DHT22;52068;50.710;14.492;2022-12-29T11:45:21;24.59;36.76
65472;DHT22;52068;50.710;14.492;2022-12-29T11:47:50;24.49;36.71
65472;DHT22;52068;50.710;14.492;2022-12-29T11:50:24;24.43;36.94
65472;DHT22;52068;50.710;14.492;2022-12-29T11:52:58;24.30;37.13
65472;DHT22;52068;50.710;14.492;2022-12-29T11:55:24;24.22;37.30
65472;DHT22;52068;50.710;14.492;2022-12-29T11:57:52;24.09;37.37
65472;DHT22;52068;50.710;14.492;2022-12-29T12:00:21;23.95;37.69
65472;DHT22;52068;50.710;14.492;2022-12-29T12:03:01;23.84;37.88
65472;DHT22;52068;50.710;14.492;2022-12-29T12:05:56;23.69;38.02
65472;DHT22;52068;50.710;14.492;2022-12-29T12:08:53;23.54;38.28
65472;DHT22;52068;50.710;14.492;2022-12-29T12:11:36;23.43;38.63
65472;DHT22;52068;50.710;14.492;2022-12-29T12:14:23;23.35;38.91
65472;DHT22;52068;50.710;14.492;2022-12-29T12:16:55;23.54;38.49
65472;DHT22;52068;50.710;14.492;2022-12-29T12:19:32;23.82;37.87
65472;DHT22;52068;50.710;14.492;2022-12-29T12:25:01;24.60;36.53
65472;DHT22;52068;50.710;14.492;2022-12-29T12:30:14;24.91;35.94
65472;DHT22;52068;50.710;14.492;2022-12-29T12:32:54;24.94;35.96
65472;DHT22;52068;50.710;14.492;2022-12-29T12:35:42;24.92;36.07
65472;DHT22;52068;50.710;14.492;2022-12-29T12:41:12;24.71;36.31
65472;DHT22;52068;50.710;14.492;2022-12-29T12:57:09;23.86;38.05
65472;DHT22;52068;50.710;14.492;2022-12-29T13:14:09;24.60;37.22
65472;DHT22;52068;50.710;14.492;2022-12-29T13:17:07;24.94;36.63
65472;DHT22;52068;50.710;14.492;2022-12-29T13:22:34;25.26;36.18
65472;DHT22;52068;50.710;14.492;2022-12-29T13:30:45;25.07;36.49
65472;DHT22;52068;50.710;14.492;2022-12-29T13:36:35;24.71;37.12
65472;DHT22;52068;50.710;14.492;2022-12-29T13:41:53;24.39;37.65
65472;DHT22;52068;50.710;14.492;2022-12-29T13:44:27;24.24;37.96
65472;DHT22;52068;50.710;14.492;2022-12-29T13:46:54;24.12;38.20
65472;DHT22;52068;50.710;14.492;2022-12-29T13:49:22;23.98;38.55
65472;DHT22;52068;50.710;14.492;2022-12-29T13:52:03;23.82;38.79
65472;DHT22;52068;50.710;14.492;2022-12-29T14:00:15;23.58;39.54
65472;DHT22;52068;50.710;14.492;2022-12-29T14:07:48;24.02;38.82
65472;DHT22;52068;50.710;14.492;2022-12-29T14:10:35;24.17;38.58
65472;DHT22;52068;50.710;14.492;2022-12-29T14:15:41;24.24;38.55
65472;DHT22;52068;50.710;14.492;2022-12-29T14:18:16;24.24;38.69
65472;DHT22;52068;50.710;14.492;2022-12-29T14:21:07;24.19;38.87
65472;DHT22;52068;50.710;14.492;2022-12-29T14:28:38;23.84;39.63
65472;DHT22;52068;50.710;14.492;2022-12-29T14:31:32;23.69;39.90
65472;DHT22;52068;50.710;14.492;2022-12-29T14:36:43;23.48;40.48
65472;DHT22;52068;50.710;14.492;2022-12-29T14:39:44;23.41;40.74
65472;DHT22;52068;50.710;14.492;2022-12-29T14:44:52;23.25;41.35
65472;DHT22;52068;50.710;14.492;2022-12-29T14:47:27;23.23;41.25
65472;DHT22;52068;50.710;14.492;2022-12-29T14:50:03;23.28;41.41
65472;DHT22;52068;50.710;14.492;2022-12-29T14:52:29;23.43;40.98
65472;DHT22;52068;50.710;14.492;2022-12-29T14:57:44;23.84;40.15
65472;DHT22;52068;50.710;14.492;2022-12-29T15:00:21;23.96;39.90
65472;DHT22;52068;50.710;14.492;2022-12-29T15:03:01;24.06;39.64
65472;DHT22;52068;50.710;14.492;2022-12-29T15:06:07;24.08;39.58
65472;DHT22;52068;50.710;14.492;2022-12-29T15:09:25;23.98;39.71
65472;DHT22;52068;50.710;14.492;2022-12-29T15:11:44;23.88;39.86
65472;DHT22;52068;50.710;14.492;2022-12-29T15:14:31;23.74;40.19
65472;DHT22;52068;50.710;14.492;2022-12-29T15:16:57;23.62;40.30
65472;DHT22;52068;50.710;14.492;2022-12-29T15:19:24;23.52;40.54
65472;DHT22;52068;50.710;14.492;2022-12-29T15:21:50;23.44;40.50
65472;DHT22;52068;50.710;14.492;2022-12-29T15:24:15;23.35;41.03
65472;DHT22;52068;50.710;14.492;2022-12-29T15:26:46;23.27;41.18
65472;DHT22;52068;50.710;14.492;2022-12-29T15:29:38;23.15;41.47
65472;DHT22;52068;50.710;14.492;2022-12-29T15:32:17;23.11;41.33
65472;DHT22;52068;50.710;14.492;2022-12-29T15:34:44;23.03;41.37
65472;DHT22;52068;50.710;14.492;2022-12-29T15:37:17;22.97;41.52
65472;DHT22;52068;50.710;14.492;2022-12-29T15:39:43;22.94;41.52
65472;DHT22;52068;50.710;14.492;2022-12-29T15:43:10;23.00;38.45
65472;DHT22;52068;50.710;14.492;2022-12-29T15:45:11;23.04;34.85
65472;DHT22;52068;50.710;14.492;2022-12-29T15:47:38;23.24;34.34
65472;DHT22;52068;50.710;14.492;2022-12-29T15:50:30;24.53;34.84
65472;DHT22;52068;50.710;14.492;2022-12-29T15:52:57;26.59;32.64
65472;DHT22;52068;50.710;14.492;2022-12-29T15:55:33;28.69;29.76
65472;DHT22;52068;50.710;14.492;2022-12-29T15:58:02;30.26;27.74
65472;DHT22;52068;50.710;14.492;2022-12-29T16:00:34;31.58;26.13
65472;DHT22;52068;50.710;14.492;2022-12-29T16:03:04;32.58;25.00
65472;DHT22;52068;50.710;14.492;2022-12-29T16:05:38;33.29;24.21
65472;DHT22;52068;50.710;14.492;2022-12-29T16:08:22;33.78;23.70
65472;DHT22;52068;50.710;14.492;2022-12-29T16:10:49;33.92;23.56
65472;DHT22;52068;50.710;14.492;2022-12-29T16:13:28;33.76;23.71
65472;DHT22;52068;50.710;14.492;2022-12-29T16:15:59;33.42;24.13
65472;DHT22;52068;50.710;14.492;2022-12-29T16:18:33;32.96;24.70
65472;DHT22;52068;50.710;14.492;2022-12-29T16:21:00;32.47;25.32
65472;DHT22;52068;50.710;14.492;2022-12-29T16:23:27;31.93;26.05
65472;DHT22;52068;50.710;14.492;2022-12-29T16:25:55;31.41;26.62
65472;DHT22;52068;50.710;14.492;2022-12-29T16:28:34;30.88;27.42
65472;DHT22;52068;50.710;14.492;2022-12-29T16:31:19;30.29;28.22
65472;DHT22;52068;50.710;14.492;2022-12-29T16:33:47;29.79;28.98
65472;DHT22;52068;50.710;14.492;2022-12-29T16:36:34;29.28;29.70
65472;DHT22;52068;50.710;14.492;2022-12-29T16:39:28;28.89;30.29
65472;DHT22;52068;50.710;14.492;2022-12-29T16:41:55;28.46;30.95
65472;DHT22;52068;50.710;14.492;2022-12-29T16:44:26;28.15;31.40
65472;DHT22;52068;50.710;14.492;2022-12-29T16:49:42;27.43;32.55
65472;DHT22;52068;50.710;14.492;2022-12-29T16:52:22;27.16;33.11
65472;DHT22;52068;50.710;14.492;2022-12-29T16:54:54;26.82;33.88
65472;DHT22;52068;50.710;14.492;2022-12-29T16:57:32;26.45;34.54
65472;DHT22;52068;50.710;14.492;2022-12-29T17:00:18;26.07;35.19
65472;DHT22;52068;50.710;14.492;2022-12-29T17:02:44;25.79;35.62
65472;DHT22;52068;50.710;14.492;2022-12-29T17:05:14;25.58;36.11
65472;DHT22;52068;50.710;14.492;2022-12-29T17:07:39;25.38;36.48
65472;DHT22;52068;50.710;14.492;2022-12-29T17:10:05;25.14;36.88
65472;DHT22;52068;50.710;14.492;2022-12-29T17:12:33;24.99;37.25
65472;DHT22;52068;50.710;14.492;2022-12-29T17:15:01;24.84;37.56
65472;DHT22;52068;50.710;14.492;2022-12-29T17:20:08;24.54;38.02
65472;DHT22;52068;50.710;14.492;2022-12-29T17:22:35;24.37;38.31
65472;DHT22;52068;50.710;14.492;2022-12-29T17:25:01;24.27;38.50
65472;DHT22;52068;50.710;14.492;2022-12-29T17:29:56;24.17;38.82
65472;DHT22;52068;50.710;14.492;2022-12-29T17:32:22;24.16;38.82
65472;DHT22;52068;50.710;14.492;2022-12-29T17:34:48;24.12;38.94
65472;DHT22;52068;50.710;14.492;2022-12-29T17:39:47;24.10;39.05
65472;DHT22;52068;50.710;14.492;2022-12-29T17:42:13;24.02;38.99
65472;DHT22;52068;50.710;14.492;2022-12-29T17:44:38;23.95;39.33
65472;DHT22;52068;50.710;14.492;2022-12-29T17:47:04;23.86;39.56
65472;DHT22;52068;50.710;14.492;2022-12-29T17:49:29;23.75;39.70
65472;DHT22;52068;50.710;14.492;2022-12-29T17:51:56;23.66;40.02
65472;DHT22;52068;50.710;14.492;2022-12-29T17:54:24;23.54;40.04